Terminal Aerodrome Forecast
Issued by NWS

Home | Current Version | Previous Version | Text Only | Print | Product List | Glossary On
Versions: 1 2 3 4 5 6 7 8 9 10 11 12 13 14
000
FTUS42 KMLB 302300
TAFISM
TAF
KISM 302321Z 0100/0124 33005KT P6SM VCSH SCT035 BKN060 OVC120
     FM010200 00000KT P6SM SCT100 BKN250
     FM010900 00000KT 5SM BR SCT006
     FM011400 07005KT P6SM FEW030 BKN080
      AMD NOT SKED 0102/0111=

USA.gov is the U.S. government's official web portal to all federal, state and local government web resources and services.